sensor_id;sensor_type;location;lat;lon;timestamp;temperature;humidity
31819;DHT22;18384;48.860;9.188;2022-10-16T00:01:29;16.60;99.90
31819;DHT22;18384;48.860;9.188;2022-10-16T00:03:57;16.60;99.90
31819;DHT22;18384;48.860;9.188;2022-10-16T00:06:25;16.60;99.90
31819;DHT22;18384;48.860;9.188;2022-10-16T00:08:52;16.60;99.90
31819;DHT22;18384;48.860;9.188;2022-10-16T00:11:23;16.60;99.90
31819;DHT22;18384;48.860;9.188;2022-10-16T00:13:55;16.60;99.90
31819;DHT22;18384;48.860;9.188;2022-10-16T00:16:23;16.60;99.90
31819;DHT22;18384;48.860;9.188;2022-10-16T00:18:49;16.60;99.90
31819;DHT22;18384;48.860;9.188;2022-10-16T00:21:22;16.60;99.90
31819;DHT22;18384;48.860;9.188;2022-10-16T00:23:53;16.60;99.90
31819;DHT22;18384;48.860;9.188;2022-10-16T00:26:22;16.60;99.90
31819;DHT22;18384;48.860;9.188;2022-10-16T00:28:49;16.60;99.90
31819;DHT22;18384;48.860;9.188;2022-10-16T00:31:17;16.50;99.90
31819;DHT22;18384;48.860;9.188;2022-10-16T00:33:45;16.50;99.90
31819;DHT22;18384;48.860;9.188;2022-10-16T00:36:15;16.50;99.90
31819;DHT22;18384;48.860;9.188;2022-10-16T00:38:43;16.40;99.90
31819;DHT22;18384;48.860;9.188;2022-10-16T00:41:13;16.50;99.90
31819;DHT22;18384;48.860;9.188;2022-10-16T00:43:49;16.40;99.90
31819;DHT22;18384;48.860;9.188;2022-10-16T00:47:47;16.40;99.90
31819;DHT22;18384;48.860;9.188;2022-10-16T00:50:33;16.50;99.90
31819;DHT22;18384;48.860;9.188;2022-10-16T00:53:01;16.40;99.90
31819;DHT22;18384;48.860;9.188;2022-10-16T00:55:29;16.40;99.90
31819;DHT22;18384;48.860;9.188;2022-10-16T00:57:56;16.40;99.90
31819;DHT22;18384;48.860;9.188;2022-10-16T01:00:26;16.40;99.90
31819;DHT22;18384;48.860;9.188;2022-10-16T01:03:02;16.30;99.90
31819;DHT22;18384;48.860;9.188;2022-10-16T01:05:50;16.40;99.90
31819;DHT22;18384;48.860;9.188;2022-10-16T01:09:14;16.40;99.90
31819;DHT22;18384;48.860;9.188;2022-10-16T01:21:26;16.50;99.90
31819;DHT22;18384;48.860;9.188;2022-10-16T01:24:26;16.50;99.90
31819;DHT22;18384;48.860;9.188;2022-10-16T01:30:30;16.50;99.90
31819;DHT22;18384;48.860;9.188;2022-10-16T01:33:10;16.50;99.90
31819;DHT22;18384;48.860;9.188;2022-10-16T01:35:43;16.50;99.90
31819;DHT22;18384;48.860;9.188;2022-10-16T01:38:35;16.50;99.90
31819;DHT22;18384;48.860;9.188;2022-10-16T01:41:17;16.50;99.90
31819;DHT22;18384;48.860;9.188;2022-10-16T01:46:54;16.50;99.90
31819;DHT22;18384;48.860;9.188;2022-10-16T01:49:23;16.50;99.90
31819;DHT22;18384;48.860;9.188;2022-10-16T01:51:56;16.50;99.90
31819;DHT22;18384;48.860;9.188;2022-10-16T01:54:27;16.50;99.90
31819;DHT22;18384;48.860;9.188;2022-10-16T01:56:56;16.50;99.90
31819;DHT22;18384;48.860;9.188;2022-10-16T01:59:25;16.50;99.90
31819;DHT22;18384;48.860;9.188;2022-10-16T02:01:55;16.50;99.90
31819;DHT22;18384;48.860;9.188;2022-10-16T02:04:31;16.50;99.90
31819;DHT22;18384;48.860;9.188;2022-10-16T02:06:59;16.50;99.90
31819;DHT22;18384;48.860;9.188;2022-10-16T02:09:25;16.50;99.90
31819;DHT22;18384;48.860;9.188;2022-10-16T02:11:54;16.50;99.90
31819;DHT22;18384;48.860;9.188;2022-10-16T02:14:21;16.50;99.90
31819;DHT22;18384;48.860;9.188;2022-10-16T02:16:50;16.60;99.90
31819;DHT22;18384;48.860;9.188;2022-10-16T02:19:16;16.60;99.90
31819;DHT22;18384;48.860;9.188;2022-10-16T02:21:58;16.60;99.90
31819;DHT22;18384;48.860;9.188;2022-10-16T02:24:57;16.60;99.90
31819;DHT22;18384;48.860;9.188;2022-10-16T02:27:41;16.60;99.90
31819;DHT22;18384;48.860;9.188;2022-10-16T02:30:34;16.60;99.90
31819;DHT22;18384;48.860;9.188;2022-10-16T02:33:06;16.60;99.90
31819;DHT22;18384;48.860;9.188;2022-10-16T02:35:36;16.70;99.90
31819;DHT22;18384;48.860;9.188;2022-10-16T02:38:03;17.20;99.90
31819;DHT22;18384;48.860;9.188;2022-10-16T02:40:30;16.70;99.90
31819;DHT22;18384;48.860;9.188;2022-10-16T02:42:56;16.50;99.90
31819;DHT22;18384;48.860;9.188;2022-10-16T02:45:23;16.60;99.90
31819;DHT22;18384;48.860;9.188;2022-10-16T02:47:49;16.60;99.90
31819;DHT22;18384;48.860;9.188;2022-10-16T02:50:16;16.60;99.90
31819;DHT22;18384;48.860;9.188;2022-10-16T02:52:42;16.60;99.90
31819;DHT22;18384;48.860;9.188;2022-10-16T02:55:08;16.60;99.90
31819;DHT22;18384;48.860;9.188;2022-10-16T02:57:34;16.60;99.90
31819;DHT22;18384;48.860;9.188;2022-10-16T03:00:04;16.60;99.90
31819;DHT22;18384;48.860;9.188;2022-10-16T03:02:31;16.60;99.90
31819;DHT22;18384;48.860;9.188;2022-10-16T03:04:57;16.50;99.90
31819;DHT22;18384;48.860;9.188;2022-10-16T03:07:23;16.50;99.90
31819;DHT22;18384;48.860;9.188;2022-10-16T03:09:49;16.50;99.90
31819;DHT22;18384;48.860;9.188;2022-10-16T03:12:15;16.50;99.90
31819;DHT22;18384;48.860;9.188;2022-10-16T03:14:41;16.50;99.90
31819;DHT22;18384;48.860;9.188;2022-10-16T03:17:07;16.50;99.90
31819;DHT22;18384;48.860;9.188;2022-10-16T03:19:33;16.40;99.90
31819;DHT22;18384;48.860;9.188;2022-10-16T03:22:01;16.40;99.90
31819;DHT22;18384;48.860;9.188;2022-10-16T03:24:27;16.40;99.90
31819;DHT22;18384;48.860;9.188;2022-10-16T03:26:53;16.40;99.90
31819;DHT22;18384;48.860;9.188;2022-10-16T03:29:19;16.50;99.90
31819;DHT22;18384;48.860;9.188;2022-10-16T03:31:45;16.40;99.90
31819;DHT22;18384;48.860;9.188;2022-10-16T03:34:13;16.40;99.90
31819;DHT22;18384;48.860;9.188;2022-10-16T03:36:40;16.40;99.90
31819;DHT22;18384;48.860;9.188;2022-10-16T03:39:06;16.40;99.90
31819;DHT22;18384;48.860;9.188;2022-10-16T03:41:32;16.40;99.90
31819;DHT22;18384;48.860;9.188;2022-10-16T03:43:58;16.40;99.90
31819;DHT22;18384;48.860;9.188;2022-10-16T03:46:24;16.30;99.90
31819;DHT22;18384;48.860;9.188;2022-10-16T03:48:50;16.40;99.90
31819;DHT22;18384;48.860;9.188;2022-10-16T03:51:16;16.30;99.90
31819;DHT22;18384;48.860;9.188;2022-10-16T03:53:42;16.40;99.90
31819;DHT22;18384;48.860;9.188;2022-10-16T03:56:08;16.30;99.90
31819;DHT22;18384;48.860;9.188;2022-10-16T03:58:34;16.30;99.90
31819;DHT22;18384;48.860;9.188;2022-10-16T04:01:01;16.30;99.90
31819;DHT22;18384;48.860;9.188;2022-10-16T04:03:27;16.30;99.90
31819;DHT22;18384;48.860;9.188;2022-10-16T04:05:53;16.30;99.90
31819;DHT22;18384;48.860;9.188;2022-10-16T04:08:19;16.30;99.90
31819;DHT22;18384;48.860;9.188;2022-10-16T04:10:45;16.30;99.90
31819;DHT22;18384;48.860;9.188;2022-10-16T04:13:12;16.30;99.90
31819;DHT22;18384;48.860;9.188;2022-10-16T04:15:38;16.30;99.90
31819;DHT22;18384;48.860;9.188;2022-10-16T04:18:05;16.30;99.90
31819;DHT22;18384;48.860;9.188;2022-10-16T04:20:32;16.20;99.90
31819;DHT22;18384;48.860;9.188;2022-10-16T04:22:58;16.40;99.90
31819;DHT22;18384;48.860;9.188;2022-10-16T04:25:24;16.30;99.90
31819;DHT22;18384;48.860;9.188;2022-10-16T04:27:53;16.30;99.90
31819;DHT22;18384;48.860;9.188;2022-10-16T04:30:20;16.20;99.90
31819;DHT22;18384;48.860;9.188;2022-10-16T04:32:51;16.20;99.90
31819;DHT22;18384;48.860;9.188;2022-10-16T04:35:18;16.30;99.90
31819;DHT22;18384;48.860;9.188;2022-10-16T04:37:45;16.30;99.90
31819;DHT22;18384;48.860;9.188;2022-10-16T04:40:12;16.30;99.90
31819;DHT22;18384;48.860;9.188;2022-10-16T04:42:39;16.30;99.90
31819;DHT22;18384;48.860;9.188;2022-10-16T04:45:06;16.40;99.90
31819;DHT22;18384;48.860;9.188;2022-10-16T04:47:33;16.30;99.90
31819;DHT22;18384;48.860;9.188;2022-10-16T04:49:59;16.30;99.90
31819;DHT22;18384;48.860;9.188;2022-10-16T04:52:28;16.30;99.90
31819;DHT22;18384;48.860;9.188;2022-10-16T04:54:54;16.60;99.90
31819;DHT22;18384;48.860;9.188;2022-10-16T04:57:21;16.30;99.90
31819;DHT22;18384;48.860;9.188;2022-10-16T04:59:48;16.30;99.90
31819;DHT22;18384;48.860;9.188;2022-10-16T05:02:14;16.30;99.90
31819;DHT22;18384;48.860;9.188;2022-10-16T05:04:40;16.30;99.90
31819;DHT22;18384;48.860;9.188;2022-10-16T05:07:06;16.30;99.90
31819;DHT22;18384;48.860;9.188;2022-10-16T05:09:32;16.30;99.90
31819;DHT22;18384;48.860;9.188;2022-10-16T05:11:58;16.40;99.90
31819;DHT22;18384;48.860;9.188;2022-10-16T05:14:24;16.30;99.90
31819;DHT22;18384;48.860;9.188;2022-10-16T05:16:50;16.30;99.90
31819;DHT22;18384;48.860;9.188;2022-10-16T05:19:17;16.30;99.90
31819;DHT22;18384;48.860;9.188;2022-10-16T05:21:43;16.30;99.90
31819;DHT22;18384;48.860;9.188;2022-10-16T05:24:09;16.30;99.90
31819;DHT22;18384;48.860;9.188;2022-10-16T05:26:35;16.30;99.90
31819;DHT22;18384;48.860;9.188;2022-10-16T05:29:01;16.30;99.90
31819;DHT22;18384;48.860;9.188;2022-10-16T05:31:28;16.30;99.90
31819;DHT22;18384;48.860;9.188;2022-10-16T05:33:58;16.20;99.90
31819;DHT22;18384;48.860;9.188;2022-10-16T05:36:26;16.20;99.90
31819;DHT22;18384;48.860;9.188;2022-10-16T05:38:52;16.20;99.90
31819;DHT22;18384;48.860;9.188;2022-10-16T05:41:18;16.20;99.90
31819;DHT22;18384;48.860;9.188;2022-10-16T05:43:50;16.20;99.90
31819;DHT22;18384;48.860;9.188;2022-10-16T05:46:17;16.20;99.90
31819;DHT22;18384;48.860;9.188;2022-10-16T05:48:43;16.20;99.90
31819;DHT22;18384;48.860;9.188;2022-10-16T05:51:12;16.20;99.90
31819;DHT22;18384;48.860;9.188;2022-10-16T05:53:40;16.20;99.90
31819;DHT22;18384;48.860;9.188;2022-10-16T05:56:08;16.20;99.90
31819;DHT22;18384;48.860;9.188;2022-10-16T05:58:36;16.20;99.90
31819;DHT22;18384;48.860;9.188;2022-10-16T06:01:06;16.20;99.90
31819;DHT22;18384;48.860;9.188;2022-10-16T06:03:35;16.20;99.90
31819;DHT22;18384;48.860;9.188;2022-10-16T06:06:15;16.20;99.90
31819;DHT22;18384;48.860;9.188;2022-10-16T06:08:44;16.20;99.90
31819;DHT22;18384;48.860;9.188;2022-10-16T06:11:14;16.20;99.90
31819;DHT22;18384;48.860;9.188;2022-10-16T06:13:44;16.20;99.90
31819;DHT22;18384;48.860;9.188;2022-10-16T06:16:12;16.30;99.90
31819;DHT22;18384;48.860;9.188;2022-10-16T06:18:39;16.20;99.90
31819;DHT22;18384;48.860;9.188;2022-10-16T06:21:19;16.30;99.90
31819;DHT22;18384;48.860;9.188;2022-10-16T06:23:47;16.30;99.90
31819;DHT22;18384;48.860;9.188;2022-10-16T06:26:16;16.30;99.90
31819;DHT22;18384;48.860;9.188;2022-10-16T06:28:43;16.30;99.90
31819;DHT22;18384;48.860;9.188;2022-10-16T06:31:10;16.30;99.90
31819;DHT22;18384;48.860;9.188;2022-10-16T06:33:38;16.40;99.90
31819;DHT22;18384;48.860;9.188;2022-10-16T06:36:10;16.30;99.90
31819;DHT22;18384;48.860;9.188;2022-10-16T06:38:38;16.30;99.90
31819;DHT22;18384;48.860;9.188;2022-10-16T06:41:05;16.40;99.90
31819;DHT22;18384;48.860;9.188;2022-10-16T06:43:32;16.40;99.90
31819;DHT22;18384;48.860;9.188;2022-10-16T06:46:01;16.40;99.90
31819;DHT22;18384;48.860;9.188;2022-10-16T06:48:29;16.40;99.90
31819;DHT22;18384;48.860;9.188;2022-10-16T06:51:06;16.50;99.90
31819;DHT22;18384;48.860;9.188;2022-10-16T06:53:38;16.50;99.90
31819;DHT22;18384;48.860;9.188;2022-10-16T06:56:11;16.50;99.90
31819;DHT22;18384;48.860;9.188;2022-10-16T06:58:48;16.50;99.90
31819;DHT22;18384;48.860;9.188;2022-10-16T07:01:17;16.60;99.90
31819;DHT22;18384;48.860;9.188;2022-10-16T07:03:45;16.60;99.90
31819;DHT22;18384;48.860;9.188;2022-10-16T07:06:14;16.60;99.90
31819;DHT22;18384;48.860;9.188;2022-10-16T07:08:43;16.80;99.90
31819;DHT22;18384;48.860;9.188;2022-10-16T07:11:12;16.80;99.90
31819;DHT22;18384;48.860;9.188;2022-10-16T07:13:41;16.80;99.90
31819;DHT22;18384;48.860;9.188;2022-10-16T07:16:13;16.90;99.90
31819;DHT22;18384;48.860;9.188;2022-10-16T07:18:41;16.90;99.90
31819;DHT22;18384;48.860;9.188;2022-10-16T07:21:12;16.90;99.90
31819;DHT22;18384;48.860;9.188;2022-10-16T07:23:40;16.90;99.90
31819;DHT22;18384;48.860;9.188;2022-10-16T07:26:07;17.00;99.90
31819;DHT22;18384;48.860;9.188;2022-10-16T07:28:33;17.00;99.90
31819;DHT22;18384;48.860;9.188;2022-10-16T07:31:08;17.00;99.90
31819;DHT22;18384;48.860;9.188;2022-10-16T07:33:37;16.90;99.90
31819;DHT22;18384;48.860;9.188;2022-10-16T07:36:04;16.90;99.90
31819;DHT22;18384;48.860;9.188;2022-10-16T07:38:30;16.90;99.90
31819;DHT22;18384;48.860;9.188;2022-10-16T07:41:05;16.90;99.90
31819;DHT22;18384;48.860;9.188;2022-10-16T07:43:33;16.90;99.90
31819;DHT22;18384;48.860;9.188;2022-10-16T07:45:59;16.90;99.90
31819;DHT22;18384;48.860;9.188;2022-10-16T07:48:31;16.90;99.90
31819;DHT22;18384;48.860;9.188;2022-10-16T07:51:01;16.90;99.90
31819;DHT22;18384;48.860;9.188;2022-10-16T07:53:29;16.90;99.90
31819;DHT22;18384;48.860;9.188;2022-10-16T07:56:03;16.90;99.90
31819;DHT22;18384;48.860;9.188;2022-10-16T07:58:31;17.00;99.90
31819;DHT22;18384;48.860;9.188;2022-10-16T08:00:58;17.10;99.90
31819;DHT22;18384;48.860;9.188;2022-10-16T08:03:25;17.10;99.90
31819;DHT22;18384;48.860;9.188;2022-10-16T08:05:51;17.20;99.90
31819;DHT22;18384;48.860;9.188;2022-10-16T08:08:18;17.30;99.90
31819;DHT22;18384;48.860;9.188;2022-10-16T08:10:45;17.40;99.90
31819;DHT22;18384;48.860;9.188;2022-10-16T08:13:11;17.50;99.90
31819;DHT22;18384;48.860;9.188;2022-10-16T08:15:40;17.60;99.90
31819;DHT22;18384;48.860;9.188;2022-10-16T08:18:07;17.60;99.90
31819;DHT22;18384;48.860;9.188;2022-10-16T08:20:34;17.70;99.90
31819;DHT22;18384;48.860;9.188;2022-10-16T08:23:01;17.70;99.90
31819;DHT22;18384;48.860;9.188;2022-10-16T08:25:27;17.90;99.90
31819;DHT22;18384;48.860;9.188;2022-10-16T08:27:53;18.00;99.90
31819;DHT22;18384;48.860;9.188;2022-10-16T08:30:22;18.10;99.90
31819;DHT22;18384;48.860;9.188;2022-10-16T08:32:48;18.20;99.90
31819;DHT22;18384;48.860;9.188;2022-10-16T08:35:15;18.40;99.90
31819;DHT22;18384;48.860;9.188;2022-10-16T08:37:42;18.50;99.90
31819;DHT22;18384;48.860;9.188;2022-10-16T08:40:22;18.60;99.90
31819;DHT22;18384;48.860;9.188;2022-10-16T08:43:54;18.60;99.90
31819;DHT22;18384;48.860;9.188;2022-10-16T08:47:13;18.60;99.90
31819;DHT22;18384;48.860;9.188;2022-10-16T08:49:57;18.70;99.90
31819;DHT22;18384;48.860;9.188;2022-10-16T08:52:35;18.70;99.90
31819;DHT22;18384;48.860;9.188;2022-10-16T08:55:05;18.90;99.90
31819;DHT22;18384;48.860;9.188;2022-10-16T08:57:31;18.90;99.90
31819;DHT22;18384;48.860;9.188;2022-10-16T09:00:01;19.00;99.90
31819;DHT22;18384;48.860;9.188;2022-10-16T09:02:40;19.10;99.90
31819;DHT22;18384;48.860;9.188;2022-10-16T09:05:31;19.10;99.90
31819;DHT22;18384;48.860;9.188;2022-10-16T09:12:51;19.10;99.90
31819;DHT22;18384;48.860;9.188;2022-10-16T09:16:18;19.10;99.90
31819;DHT22;18384;48.860;9.188;2022-10-16T09:19:28;19.00;99.90
31819;DHT22;18384;48.860;9.188;2022-10-16T09:22:11;19.00;99.90
31819;DHT22;18384;48.860;9.188;2022-10-16T09:24:39;19.00;99.90
31819;DHT22;18384;48.860;9.188;2022-10-16T09:27:10;19.10;99.90
31819;DHT22;18384;48.860;9.188;2022-10-16T09:29:37;19.10;99.90
31819;DHT22;18384;48.860;9.188;2022-10-16T09:32:19;19.10;99.90
31819;DHT22;18384;48.860;9.188;2022-10-16T09:34:55;19.10;99.90
31819;DHT22;18384;48.860;9.188;2022-10-16T09:37:22;19.10;99.90
31819;DHT22;18384;48.860;9.188;2022-10-16T09:39:54;19.10;99.90
31819;DHT22;18384;48.860;9.188;2022-10-16T09:42:35;19.00;99.90
31819;DHT22;18384;48.860;9.188;2022-10-16T09:45:03;19.00;99.90
31819;DHT22;18384;48.860;9.188;2022-10-16T09:47:31;19.00;99.90
31819;DHT22;18384;48.860;9.188;2022-10-16T09:49:59;19.00;99.90
31819;DHT22;18384;48.860;9.188;2022-10-16T09:52:32;18.90;99.90
31819;DHT22;18384;48.860;9.188;2022-10-16T09:55:01;19.00;99.90
31819;DHT22;18384;48.860;9.188;2022-10-16T09:57:37;19.10;99.90
31819;DHT22;18384;48.860;9.188;2022-10-16T10:00:17;19.10;99.90
31819;DHT22;18384;48.860;9.188;2022-10-16T10:02:44;19.20;99.90
31819;DHT22;18384;48.860;9.188;2022-10-16T10:05:25;19.40;99.90
31819;DHT22;18384;48.860;9.188;2022-10-16T10:08:01;19.50;99.90
31819;DHT22;18384;48.860;9.188;2022-10-16T10:10:33;19.60;99.90
31819;DHT22;18384;48.860;9.188;2022-10-16T10:13:02;19.70;99.90
31819;DHT22;18384;48.860;9.188;2022-10-16T10:15:33;19.60;99.90
31819;DHT22;18384;48.860;9.188;2022-10-16T10:18:00;19.60;99.90
31819;DHT22;18384;48.860;9.188;2022-10-16T10:20:33;19.60;99.90
31819;DHT22;18384;48.860;9.188;2022-10-16T10:23:13;19.70;99.90
31819;DHT22;18384;48.860;9.188;2022-10-16T10:29:30;19.80;99.90
31819;DHT22;18384;48.860;9.188;2022-10-16T10:32:27;20.10;99.90
31819;DHT22;18384;48.860;9.188;2022-10-16T10:36:37;20.30;99.90
31819;DHT22;18384;48.860;9.188;2022-10-16T10:39:30;20.60;99.90
31819;DHT22;18384;48.860;9.188;2022-10-16T10:42:14;20.80;99.90
31819;DHT22;18384;48.860;9.188;2022-10-16T10:45:16;21.00;99.90
31819;DHT22;18384;48.860;9.188;2022-10-16T11:03:32;21.90;99.90
31819;DHT22;18384;48.860;9.188;2022-10-16T11:06:48;22.40;97.20
31819;DHT22;18384;48.860;9.188;2022-10-16T11:09:30;22.40;98.40
31819;DHT22;18384;48.860;9.188;2022-10-16T11:15:39;22.30;97.90
31819;DHT22;18384;48.860;9.188;2022-10-16T11:18:21;22.30;97.80
31819;DHT22;18384;48.860;9.188;2022-10-16T11:21:07;22.20;97.80
31819;DHT22;18384;48.860;9.188;2022-10-16T11:23:55;22.20;98.20
31819;DHT22;18384;48.860;9.188;2022-10-16T11:26:27;22.10;98.20
31819;DHT22;18384;48.860;9.188;2022-10-16T11:28:57;22.00;97.60
31819;DHT22;18384;48.860;9.188;2022-10-16T11:31:38;21.90;97.70
31819;DHT22;18384;48.860;9.188;2022-10-16T11:34:24;21.90;98.10
31819;DHT22;18384;48.860;9.188;2022-10-16T11:37:16;21.80;98.50
31819;DHT22;18384;48.860;9.188;2022-10-16T11:39:47;21.70;98.50
31819;DHT22;18384;48.860;9.188;2022-10-16T11:42:22;21.70;97.70
31819;DHT22;18384;48.860;9.188;2022-10-16T11:45:50;21.70;98.00
31819;DHT22;18384;48.860;9.188;2022-10-16T11:48:27;21.70;98.40
31819;DHT22;18384;48.860;9.188;2022-10-16T11:51:26;21.70;97.60
31819;DHT22;18384;48.860;9.188;2022-10-16T11:54:41;21.60;97.60
31819;DHT22;18384;48.860;9.188;2022-10-16T11:57:29;21.70;97.20
31819;DHT22;18384;48.860;9.188;2022-10-16T12:00:00;21.70;96.90
31819;DHT22;18384;48.860;9.188;2022-10-16T12:03:04;21.80;97.00
31819;DHT22;18384;48.860;9.188;2022-10-16T12:12:38;21.90;97.00
31819;DHT22;18384;48.860;9.188;2022-10-16T12:15:27;21.90;97.10
31819;DHT22;18384;48.860;9.188;2022-10-16T12:17:56;22.00;97.60
31819;DHT22;18384;48.860;9.188;2022-10-16T12:20:34;21.90;97.60
31819;DHT22;18384;48.860;9.188;2022-10-16T12:23:06;21.90;97.40
31819;DHT22;18384;48.860;9.188;2022-10-16T12:25:37;22.00;96.50
31819;DHT22;18384;48.860;9.188;2022-10-16T12:28:25;22.00;96.70
31819;DHT22;18384;48.860;9.188;2022-10-16T12:31:01;21.90;96.80
31819;DHT22;18384;48.860;9.188;2022-10-16T12:33:36;21.90;96.70
31819;DHT22;18384;48.860;9.188;2022-10-16T12:36:30;21.90;96.50
31819;DHT22;18384;48.860;9.188;2022-10-16T12:38:58;21.70;96.70
31819;DHT22;18384;48.860;9.188;2022-10-16T12:41:35;21.70;96.70
31819;DHT22;18384;48.860;9.188;2022-10-16T12:44:20;21.70;96.80
31819;DHT22;18384;48.860;9.188;2022-10-16T12:46:48;21.70;96.50
31819;DHT22;18384;48.860;9.188;2022-10-16T12:49:38;21.80;96.70
31819;DHT22;18384;48.860;9.188;2022-10-16T12:52:26;21.90;96.90
31819;DHT22;18384;48.860;9.188;2022-10-16T12:55:04;22.00;96.80
31819;DHT22;18384;48.860;9.188;2022-10-16T12:58:42;22.10;96.50
31819;DHT22;18384;48.860;9.188;2022-10-16T13:01:29;22.10;96.30
31819;DHT22;18384;48.860;9.188;2022-10-16T13:06:26;22.20;96.30
31819;DHT22;18384;48.860;9.188;2022-10-16T13:18:17;22.30;96.20
31819;DHT22;18384;48.860;9.188;2022-10-16T13:21:17;22.50;96.20
31819;DHT22;18384;48.860;9.188;2022-10-16T13:24:19;22.50;96.10
31819;DHT22;18384;48.860;9.188;2022-10-16T13:27:07;22.60;95.60
31819;DHT22;18384;48.860;9.188;2022-10-16T13:29:39;22.60;95.70
31819;DHT22;18384;48.860;9.188;2022-10-16T13:32:10;22.60;95.90
31819;DHT22;18384;48.860;9.188;2022-10-16T13:34:45;22.70;96.00
31819;DHT22;18384;48.860;9.188;2022-10-16T13:37:19;22.70;95.90
31819;DHT22;18384;48.860;9.188;2022-10-16T13:39:46;22.60;95.60
31819;DHT22;18384;48.860;9.188;2022-10-16T13:42:21;22.50;96.00
31819;DHT22;18384;48.860;9.188;2022-10-16T13:44:52;22.50;96.00
31819;DHT22;18384;48.860;9.188;2022-10-16T13:47:28;22.40;95.90
31819;DHT22;18384;48.860;9.188;2022-10-16T13:50:16;22.30;96.20
31819;DHT22;18384;48.860;9.188;2022-10-16T13:52:45;22.30;96.40
31819;DHT22;18384;48.860;9.188;2022-10-16T13:55:13;22.20;96.80
31819;DHT22;18384;48.860;9.188;2022-10-16T13:57:42;22.20;97.00
31819;DHT22;18384;48.860;9.188;2022-10-16T14:00:23;22.20;97.00
31819;DHT22;18384;48.860;9.188;2022-10-16T14:03:36;22.10;97.20
31819;DHT22;18384;48.860;9.188;2022-10-16T14:06:06;22.10;97.00
31819;DHT22;18384;48.860;9.188;2022-10-16T14:08:43;22.10;97.10
31819;DHT22;18384;48.860;9.188;2022-10-16T14:11:21;22.00;96.90
31819;DHT22;18384;48.860;9.188;2022-10-16T14:13:50;21.90;97.30
31819;DHT22;18384;48.860;9.188;2022-10-16T14:16:20;21.80;97.10
31819;DHT22;18384;48.860;9.188;2022-10-16T14:19:00;21.70;97.50
31819;DHT22;18384;48.860;9.188;2022-10-16T14:21:28;21.70;97.60
31819;DHT22;18384;48.860;9.188;2022-10-16T14:23:55;21.70;97.70
31819;DHT22;18384;48.860;9.188;2022-10-16T14:26:27;21.70;97.70
31819;DHT22;18384;48.860;9.188;2022-10-16T14:29:12;21.80;97.90
31819;DHT22;18384;48.860;9.188;2022-10-16T14:31:41;21.70;97.90
31819;DHT22;18384;48.860;9.188;2022-10-16T14:34:32;21.80;98.00
31819;DHT22;18384;48.860;9.188;2022-10-16T14:39:04;21.70;97.90
31819;DHT22;18384;48.860;9.188;2022-10-16T14:41:43;21.80;98.00
31819;DHT22;18384;48.860;9.188;2022-10-16T14:44:12;21.70;97.70
31819;DHT22;18384;48.860;9.188;2022-10-16T14:46:40;21.80;98.10
31819;DHT22;18384;48.860;9.188;2022-10-16T14:49:25;21.70;98.00
31819;DHT22;18384;48.860;9.188;2022-10-16T14:51:53;21.70;97.80
31819;DHT22;18384;48.860;9.188;2022-10-16T14:54:20;21.70;97.80
31819;DHT22;18384;48.860;9.188;2022-10-16T14:56:57;21.80;98.20
31819;DHT22;18384;48.860;9.188;2022-10-16T15:00:24;21.80;97.90
31819;DHT22;18384;48.860;9.188;2022-10-16T15:02:50;21.80;98.10
31819;DHT22;18384;48.860;9.188;2022-10-16T15:05:20;21.70;98.10
31819;DHT22;18384;48.860;9.188;2022-10-16T15:07:48;21.70;98.30
31819;DHT22;18384;48.860;9.188;2022-10-16T15:10:17;21.70;98.40
31819;DHT22;18384;48.860;9.188;2022-10-16T15:12:44;21.60;98.50
31819;DHT22;18384;48.860;9.188;2022-10-16T15:15:37;21.60;98.50
31819;DHT22;18384;48.860;9.188;2022-10-16T15:18:08;21.60;98.70
31819;DHT22;18384;48.860;9.188;2022-10-16T15:20:34;21.60;98.80
31819;DHT22;18384;48.860;9.188;2022-10-16T15:23:15;21.60;98.80
31819;DHT22;18384;48.860;9.188;2022-10-16T15:25:50;21.50;98.80
31819;DHT22;18384;48.860;9.188;2022-10-16T15:28:19;21.40;98.90
31819;DHT22;18384;48.860;9.188;2022-10-16T15:30:46;21.40;99.10
31819;DHT22;18384;48.860;9.188;2022-10-16T15:33:16;21.30;99.00
31819;DHT22;18384;48.860;9.188;2022-10-16T15:35:47;21.20;99.20
31819;DHT22;18384;48.860;9.188;2022-10-16T15:38:14;21.30;99.20
31819;DHT22;18384;48.860;9.188;2022-10-16T15:40:41;21.20;99.30
31819;DHT22;18384;48.860;9.188;2022-10-16T15:43:07;21.10;99.10
31819;DHT22;18384;48.860;9.188;2022-10-16T15:45:34;21.10;99.20
31819;DHT22;18384;48.860;9.188;2022-10-16T15:48:00;21.10;99.30
31819;DHT22;18384;48.860;9.188;2022-10-16T15:50:26;21.10;99.30
31819;DHT22;18384;48.860;9.188;2022-10-16T15:52:53;21.10;99.20
31819;DHT22;18384;48.860;9.188;2022-10-16T15:55:18;21.20;99.40
31819;DHT22;18384;48.860;9.188;2022-10-16T15:57:45;21.10;99.40
31819;DHT22;18384;48.860;9.188;2022-10-16T16:00:14;21.10;99.40
31819;DHT22;18384;48.860;9.188;2022-10-16T16:02:43;21.10;99.50
31819;DHT22;18384;48.860;9.188;2022-10-16T16:05:14;21.00;99.60
31819;DHT22;18384;48.860;9.188;2022-10-16T16:07:41;21.00;99.70
31819;DHT22;18384;48.860;9.188;2022-10-16T16:10:09;20.90;99.90
31819;DHT22;18384;48.860;9.188;2022-10-16T16:12:36;20.90;99.90
31819;DHT22;18384;48.860;9.188;2022-10-16T16:15:04;20.90;99.90
31819;DHT22;18384;48.860;9.188;2022-10-16T16:17:33;20.80;99.90
31819;DHT22;18384;48.860;9.188;2022-10-16T16:20:00;20.80;99.90
31819;DHT22;18384;48.860;9.188;2022-10-16T16:22:26;20.60;99.90
31819;DHT22;18384;48.860;9.188;2022-10-16T16:24:53;20.60;99.90
31819;DHT22;18384;48.860;9.188;2022-10-16T16:27:19;20.50;99.90
31819;DHT22;18384;48.860;9.188;2022-10-16T16:29:46;20.40;99.90
31819;DHT22;18384;48.860;9.188;2022-10-16T16:32:12;20.30;99.90
31819;DHT22;18384;48.860;9.188;2022-10-16T16:34:38;20.20;99.90
31819;DHT22;18384;48.860;9.188;2022-10-16T16:37:04;20.20;99.90
31819;DHT22;18384;48.860;9.188;2022-10-16T16:39:30;20.10;99.90
31819;DHT22;18384;48.860;9.188;2022-10-16T16:41:57;20.00;99.90
31819;DHT22;18384;48.860;9.188;2022-10-16T16:44:28;20.10;99.90
31819;DHT22;18384;48.860;9.188;2022-10-16T16:46:54;20.00;99.90
31819;DHT22;18384;48.860;9.188;2022-10-16T16:49:20;19.90;99.90
31819;DHT22;18384;48.860;9.188;2022-10-16T16:51:46;19.90;99.90
31819;DHT22;18384;48.860;9.188;2022-10-16T16:54:12;19.80;99.90
31819;DHT22;18384;48.860;9.188;2022-10-16T16:56:39;19.80;99.90
31819;DHT22;18384;48.860;9.188;2022-10-16T16:59:17;19.70;99.90
31819;DHT22;18384;48.860;9.188;2022-10-16T17:01:46;19.60;99.90
31819;DHT22;18384;48.860;9.188;2022-10-16T17:04:12;19.70;99.90
31819;DHT22;18384;48.860;9.188;2022-10-16T17:06:40;19.60;99.90
31819;DHT22;18384;48.860;9.188;2022-10-16T17:09:07;19.50;99.90
31819;DHT22;18384;48.860;9.188;2022-10-16T17:11:35;19.40;99.90
31819;DHT22;18384;48.860;9.188;2022-10-16T17:14:01;19.30;99.90